CheckWX is a tool to help pilots better visualize weather data.  It is not intended as a substitute for an official pre-flight weather briefing.

08:19:36 UTC

KRND TAF
Randolph AFB Airport
Universal City, Texas, USA
TAF AMD KRND 142332Z 1423/1524 03006KT 9999 BKN050 QNH3025INS BECMG 1505/1506 36006KT 9999 FEW020 QNH3030INS TX13/1518Z TN03/1511Z LAST NO AMDS AFT 1501 NEXT 1510

Nov-14@
23:00 UTC

Nov-14 @ 23:00 UTC

Nov-15@
05:00 UTC

Nov-15 @ 05:00 UTC

TAF AMD KRND 142332Z 1423/1524 03006KT 9999 BKN050 QNH3025INS

Expired

Wind
  • 030° at 6 KTS
Cloud Levels
  • Broken at 5,000' AGL

Nov-15@
05:00 UTC

Nov-15 @ 05:00 UTC

Nov-16@
00:00 UTC

Nov-16 @ 00:00 UTC

BECMG 1505/1506 36006KT 9999 FEW020 QNH3030INS TX13/1518Z TN03/1511Z LAST NO AMDS AFT 1501 NEXT 1510

Becoming

Becoming Conditions expected by Fri, Nov 15, 2019 @ 06:00 UTC

Wind
  • 360° at 6 KTS
Cloud Levels
  • Few at 2,000' AGL